Flight Track Log - Related Links

Times and Time Zones

All times are in EDT time to prevent confusion due to time zone crossing. See the QXE2079 flight status page for this flight to view local times or setup timezone preferences in your user account.

Time Position Orientation Groundspeed Altitude Reporting Facility
EDT Latitude Longitude Course Direction KTS MPH feet Rate Location/Type
Fri 05:10:00 PM 46.1977 -118.8216 286° West  Level FlightAware Approximate
Fri 05:11:00 PM 46.2190 -118.9219 287° West  Level FlightAware Approximate
Fri 05:12:00 PM 46.2405 -119.0222 287° West  Level FlightAware Approximate
Fri 05:13:00 PM 46.2559 -119.1236 290° West  Level FlightAware Approximate
Fri 05:14:00 PM 46.2806 -119.2224 290° West  Level FlightAware Approximate
Fri 05:15:00 PM 46.3054 -119.3212 290° West  Level FlightAware Approximate
Fri 05:16:00 PM 46.3300 -119.4201 290° West  Level FlightAware Approximate
Fri 05:17:00 PM 46.3500 -119.5202 270° West  Level FlightAware Approximate
Fri 05:18:00 PM 46.3705 -119.6191 286° West  Level FlightAware Approximate
Fri 05:19:00 PM 46.3939 -119.7186 294° West  Level FlightAware Approximate
Fri 05:20:00 PM 46.4229 -119.8152 294° West  Level FlightAware Approximate
Fri 05:21:00 PM 46.4443 -119.9155 284° West  Level FlightAware Approximate
Fri 05:22:00 PM 46.4661 -120.0159 290° West  Level FlightAware Approximate
Fri 05:23:00 PM 46.4902 -120.1154 289° West  Level FlightAware Approximate
Fri 05:24:00 PM 46.5143 -120.2149 289° West  Level FlightAware Approximate
Fri 05:25:00 PM 46.5382 -120.3146 289° West  Level FlightAware Approximate
Fri 05:26:00 PM 46.5621 -120.4143 289° West  Level FlightAware Approximate
Fri 05:27:00 PM 46.5948 -120.5084 299° West  Level FlightAware Approximate
Fri 05:28:00 PM 46.6355 -120.5949 314° West  Level FlightAware Approximate
Fri 05:29:00 PM 46.6775 -120.6807 302° West  Level FlightAware Approximate
Fri 05:30:00 PM 46.7167 -120.7643 270° West  Level FlightAware Approximate
Fri 05:31:00 PM 46.7612 -120.8464 299° West  Level FlightAware Approximate
Fri 05:32:00 PM 46.7960 -120.9394 299° West  Level FlightAware Approximate
Fri 05:33:00 PM 46.8380 -121.0259 306° West  Level FlightAware Approximate
Fri 05:34:00 PM 46.8786 -121.1140 303° West  Level FlightAware Approximate
Fri 05:35:00 PM 46.9182 -121.2030 303° West  Level FlightAware Approximate
Fri 05:36:00 PM 46.9578 -121.2922 303° West  Level FlightAware Approximate
Fri 05:37:00 PM 47.0049 -121.3610 303° West  Level FlightAware Approximate
Fri 05:38:00 PM 47.0446 -121.4502 303° West  Level FlightAware Approximate
Fri 05:39:00 PM 47.0778 -121.5443 290° West  Level FlightAware Approximate
Fri 05:40:00 PM 47.1196 -121.6301 310° West  Level FlightAware Approximate
Fri 05:41:00 PM 47.1616 -121.7231 306° West  Level FlightAware Approximate
Fri 05:42:00 PM 47.2109 -121.8109 326° Northwest  Level FlightAware Approximate
Fri 05:43:00 PM 47.2528 -121.9069 301° West  Level FlightAware Approximate
Fri 05:44:00 PM 47.2912 -122.0070 296° West  Level FlightAware Approximate
Fri 05:45:00 PM 47.3377 -122.0965 296° West  Level FlightAware Approximate
Fri 05:46:00 PM 47.3798 -122.1930 306° West  Level FlightAware Approximate
Fri 05:47:00 PM 47.4262 -122.2858 306° West  Level FlightAware Approximate
Fri 05:48:00 PM 47.4333 -122.3000 306° West  Level FlightAware Approximate
Fri 05:49:00 PM 47.4499 -122.3118 306° West  Level Estimated
Fri 05:50:00 PM 47.4499 -122.3118 306° West  Level Estimated
Fri 05:51:00 PM 47.4499 -122.3118 306° West  Level Estimated
Fri 05:52:00 PM 47.4499 -122.3118 306° West  Level Estimated
Fri 05:53:00 PM 47.4499 -122.3118 306° West  Level Estimated
Fri 05:54:00 PM 47.4499 -122.3118 306° West  Level Estimated
Fri 05:55:00 PM 47.4499 -122.3118 306° West  Level Estimated

Login

Don't have an account? Register now (free) for customized features, flight alerts, and more!